Time;durP1;ratioP1;P1;durP2;ratioP2;P2;SDS_P1;SDS_P2;PMS_P1;PMS_P2;Temp;Humidity;BMP_temperature;BMP_pressure;BME280_temperature;BME280_humidity;BME280_pressure;Samples;Min_cycle;Max_cycle;Signal;HPM_P1;HPM_P2
2023/10/30 00:02:02;;;;;;;;;;;;;;;;;;5095049;28;19939;-73
2023/10/30 00:04:28;;;;;;;;;;;;;;;;;;5095379;28;20380;-73
2023/10/30 00:06:54;;;;;;;;;;;;;;;;;;5095482;28;19915;-73
2023/10/30 00:09:20;;;;;;;;;;;;;;;;;;5095145;28;19908;-73
2023/10/30 00:11:47;;;;;;;;;;;;;;;;;;5095297;28;19960;-73
2023/10/30 00:14:14;;;;;;;;;;;;;;;;;;5094885;28;19931;-73
2023/10/30 00:16:40;;;;;;;;;;;;;;;;;;5077212;28;20279;-73
2023/10/30 00:19:06;;;;;;;;;;;;;;;;;;5095446;28;19908;-74
2023/10/30 00:21:32;;;;;;;;;;;;;;;;;;5094691;28;19909;-74
2023/10/30 00:23:58;;;;;;;;;;;;;;;;;;5095313;28;20356;-74
2023/10/30 00:26:24;;;;;;;;;;;;;;;;;;5095001;28;19908;-74
2023/10/30 00:28:51;;;;;;;;;;;;;;;;;;5076309;28;20398;-74
2023/10/30 00:31:17;;;;;;;;;;;;;;;;;;5094928;28;19908;-74
2023/10/30 00:33:43;;;;;;;;;;;;;;;;;;5094844;28;20006;-74
2023/10/30 00:36:09;;;;;;;;;;;;;;;;;;5094135;28;19927;-74
2023/10/30 00:38:35;;;;;;;;;;;;;;;;;;5094785;28;19908;-73
2023/10/30 00:41:01;;;;;;;;;;;;;;;;;;5094716;28;19908;-74
2023/10/30 00:43:27;;;;;;;;;;;;;;;;;;5094235;28;19908;-73
2023/10/30 00:45:53;;;;;;;;;;;;;;;;;;5094172;28;19948;-74
2023/10/30 00:48:19;;;;;;;;;;;;;;;;;;5094581;28;19915;-73
2023/10/30 00:50:45;;;;;;;;;;;;;;;;;;5094206;28;19919;-73
2023/10/30 00:53:11;;;;;;;;;;;;;;;;;;5094500;28;20275;-74
2023/10/30 00:55:38;;;;;;;;;;;;;;;;;;5094361;28;19912;-73
2023/10/30 00:58:07;;;;;;;;;;;;;;;;;;5094050;28;20429;-73
2023/10/30 01:00:33;;;;;;;;;;;;;;;;;;5094373;28;19908;-73
2023/10/30 01:02:59;;;;;;;;;;;;;;;;;;5094339;28;19915;-74
2023/10/30 01:05:25;;;;;;;;;;;;;;;;;;5075797;28;19955;-74
2023/10/30 01:07:51;;;;;;;;;;;;;;;;;;5094534;28;20250;-74
2023/10/30 01:10:17;;;;;;;;;;;;;;;;;;5093802;28;19930;-71
2023/10/30 01:12:43;;;;;;;;;;;;;;;;;;5094179;28;19944;-71
2023/10/30 01:15:09;;;;;;;;;;;;;;;;;;5094590;28;19923;-71
2023/10/30 01:17:34;;;;;;;;;;;;;;;;;;5093765;28;19912;-71
2023/10/30 01:20:01;;;;;;;;;;;;;;;;;;5094077;28;19908;-72
2023/10/30 01:22:27;;;;;;;;;;;;;;;;;;5094182;28;19916;-72
2023/10/30 01:24:53;;;;;;;;;;;;;;;;;;5093622;28;19908;-73
2023/10/30 01:27:19;;;;;;;;;;;;;;;;;;5094303;28;20007;-72
2023/10/30 01:29:44;;;;;;;;;;;;;;;;;;5093930;28;19943;-72
2023/10/30 01:32:10;;;;;;;;;;;;;;;;;;5093590;28;19908;-72
2023/10/30 01:34:36;;;;;;;;;;;;;;;;;;5093891;28;19915;-72
2023/10/30 01:37:02;;;;;;;;;;;;;;;;;;5094363;28;20022;-72
2023/10/30 01:39:28;;;;;;;;;;;;;;;;;;5093526;28;20496;-72
2023/10/30 01:41:54;;;;;;;;;;;;;;;;;;5094494;28;20366;-72
2023/10/30 01:44:20;;;;;;;;;;;;;;;;;;5075710;28;19912;-72
2023/10/30 01:46:46;;;;;;;;;;;;;;;;;;5093559;28;19944;-72
2023/10/30 01:49:12;;;;;;;;;;;;;;;;;;5093783;28;19916;-72
2023/10/30 01:51:38;;;;;;;;;;;;;;;;;;5094067;28;19965;-72
2023/10/30 01:54:04;;;;;;;;;;;;;;;;;;5093534;28;19915;-72
2023/10/30 01:56:30;;;;;;;;;;;;;;;;;;5093846;28;19970;-72
2023/10/30 01:58:56;;;;;;;;;;;;;;;;;;5079643;28;19915;-72
2023/10/30 02:01:22;;;;;;;;;;;;;;;;;;5079227;28;20009;-72
2023/10/30 02:03:49;;;;;;;;;;;;;;;;;;5097684;28;19958;-72
2023/10/30 02:06:15;;;;;;;;;;;;;;;;;;5097954;28;19961;-73
2023/10/30 02:08:40;;;;;;;;;;;;;;;;;;5097262;28;20390;-72
2023/10/30 02:11:06;;;;;;;;;;;;;;;;;;5097632;28;19908;-72
2023/10/30 02:13:32;;;;;;;;;;;;;;;;;;5097269;28;19908;-72
2023/10/30 02:15:58;;;;;;;;;;;;;;;;;;5097442;28;19971;-72
2023/10/30 02:18:24;;;;;;;;;;;;;;;;;;5097767;28;19908;-72
2023/10/30 02:20:50;;;;;;;;;;;;;;;;;;5097020;28;19915;-72
2023/10/30 02:23:16;;;;;;;;;;;;;;;;;;5097439;28;19912;-72
2023/10/30 02:25:42;;;;;;;;;;;;;;;;;;5097505;28;19914;-72
2023/10/30 02:28:08;;;;;;;;;;;;;;;;;;5097051;28;19912;-72
2023/10/30 02:30:34;;;;;;;;;;;;;;;;;;5097229;28;19908;-72
2023/10/30 02:33:00;;;;;;;;;;;;;;;;;;5097328;28;19908;-72
2023/10/30 02:35:26;;;;;;;;;;;;;;;;;;5096447;28;19921;-73
2023/10/30 02:37:52;;;;;;;;;;;;;;;;;;5097124;28;19908;-73
2023/10/30 02:40:18;;;;;;;;;;;;;;;;;;5097221;28;19918;-72
2023/10/30 02:42:44;;;;;;;;;;;;;;;;;;5096569;28;20311;-73
2023/10/30 02:45:10;;;;;;;;;;;;;;;;;;5097066;28;20359;-73
2023/10/30 02:47:36;;;;;;;;;;;;;;;;;;5078724;28;20430;-73
2023/10/30 02:50:02;;;;;;;;;;;;;;;;;;5078265;28;19908;-73
2023/10/30 02:52:28;;;;;;;;;;;;;;;;;;5096876;28;20360;-73
2023/10/30 02:54:54;;;;;;;;;;;;;;;;;;5096658;28;19908;-73
2023/10/30 02:57:20;;;;;;;;;;;;;;;;;;5096420;28;19908;-72
2023/10/30 02:59:46;;;;;;;;;;;;;;;;;;5096738;28;19915;-73
2023/10/30 03:02:12;;;;;;;;;;;;;;;;;;5096606;28;19908;-73
2023/10/30 03:04:38;;;;;;;;;;;;;;;;;;5078038;28;19916;-73
2023/10/30 03:07:04;;;;;;;;;;;;;;;;;;5097014;28;20214;-73
2023/10/30 03:09:30;;;;;;;;;;;;;;;;;;5096022;28;19908;-73
2023/10/30 03:11:56;;;;;;;;;;;;;;;;;;5096041;28;19915;-73
2023/10/30 03:14:22;;;;;;;;;;;;;;;;;;5096404;28;19972;-73
2023/10/30 03:16:47;;;;;;;;;;;;;;;;;;5096280;28;20032;-73
2023/10/30 03:19:13;;;;;;;;;;;;;;;;;;5096083;28;19931;-73
2023/10/30 03:21:39;;;;;;;;;;;;;;;;;;5096337;28;20006;-73
2023/10/30 03:24:05;;;;;;;;;;;;;;;;;;5095819;28;19950;-73
2023/10/30 03:26:31;;;;;;;;;;;;;;;;;;5096258;28;19908;-73
2023/10/30 03:28:57;;;;;;;;;;;;;;;;;;5078025;28;19991;-73
2023/10/30 03:31:23;;;;;;;;;;;;;;;;;;5095706;28;19908;-73
2023/10/30 03:33:50;;;;;;;;;;;;;;;;;;5077910;28;19908;-74
2023/10/30 03:36:16;;;;;;;;;;;;;;;;;;5095757;28;19920;-73
2023/10/30 03:38:42;;;;;;;;;;;;;;;;;;5077350;28;19961;-73
2023/10/30 03:41:08;;;;;;;;;;;;;;;;;;5095878;28;19912;-72
2023/10/30 03:43:34;;;;;;;;;;;;;;;;;;5095814;28;20283;-72
2023/10/30 03:46:00;;;;;;;;;;;;;;;;;;5095409;28;19909;-72
2023/10/30 03:48:26;;;;;;;;;;;;;;;;;;5095779;28;19908;-72
2023/10/30 03:50:52;;;;;;;;;;;;;;;;;;5095710;28;19912;-74
2023/10/30 03:53:18;;;;;;;;;;;;;;;;;;5095247;28;19963;-73
2023/10/30 03:55:44;;;;;;;;;;;;;;;;;;5095551;28;19920;-73
2023/10/30 03:58:10;;;;;;;;;;;;;;;;;;5095553;28;19908;-73
2023/10/30 04:00:36;;;;;;;;;;;;;;;;;;5095174;28;19908;-73
2023/10/30 04:03:01;;;;;;;;;;;;;;;;;;5095474;28;19915;-72
2023/10/30 04:05:27;;;;;;;;;;;;;;;;;;5095418;28;20001;-73
2023/10/30 04:07:53;;;;;;;;;;;;;;;;;;5095130;28;20330;-73
2023/10/30 04:10:19;;;;;;;;;;;;;;;;;;5095363;28;19955;-73
2023/10/30 04:12:45;;;;;;;;;;;;;;;;;;5095535;28;19995;-72
2023/10/30 04:15:11;;;;;;;;;;;;;;;;;;5094762;28;19912;-73
2023/10/30 04:17:37;;;;;;;;;;;;;;;;;;5095224;28;19912;-73
2023/10/30 04:20:03;;;;;;;;;;;;;;;;;;5094439;28;19908;-73
2023/10/30 04:22:29;;;;;;;;;;;;;;;;;;5094707;28;19908;-73
2023/10/30 04:24:55;;;;;;;;;;;;;;;;;;5095040;28;20005;-73
2023/10/30 04:27:21;;;;;;;;;;;;;;;;;;5094660;28;19969;-73
2023/10/30 04:29:47;;;;;;;;;;;;;;;;;;5094946;28;19908;-73
2023/10/30 04:32:13;;;;;;;;;;;;;;;;;;5095175;28;20372;-72
2023/10/30 04:34:39;;;;;;;;;;;;;;;;;;5076108;28;20441;-73
2023/10/30 04:37:05;;;;;;;;;;;;;;;;;;5094886;28;20387;-73
2023/10/30 04:39:31;;;;;;;;;;;;;;;;;;5094824;28;19908;-74
2023/10/30 04:41:57;;;;;;;;;;;;;;;;;;5094379;28;19931;-73
2023/10/30 04:44:23;;;;;;;;;;;;;;;;;;5094664;28;19908;-73
2023/10/30 04:46:49;;;;;;;;;;;;;;;;;;5094639;28;19982;-72
2023/10/30 04:49:16;;;;;;;;;;;;;;;;;;5094189;28;19931;-72
2023/10/30 04:51:42;;;;;;;;;;;;;;;;;;5094557;28;20387;-72
2023/10/30 04:54:07;;;;;;;;;;;;;;;;;;5094509;28;19908;-72
2023/10/30 04:56:33;;;;;;;;;;;;;;;;;;5094052;28;20007;-72
2023/10/30 04:58:59;;;;;;;;;;;;;;;;;;5094479;28;19931;-72
2023/10/30 05:01:26;;;;;;;;;;;;;;;;;;5094236;28;19908;-72
2023/10/30 05:03:52;;;;;;;;;;;;;;;;;;5075920;28;19954;-72
2023/10/30 05:06:17;;;;;;;;;;;;;;;;;;5094410;28;20368;-72
2023/10/30 05:08:43;;;;;;;;;;;;;;;;;;5094458;28;20365;-72
2023/10/30 05:11:09;;;;;;;;;;;;;;;;;;5093926;28;20031;-72
2023/10/30 05:13:35;;;;;;;;;;;;;;;;;;5093878;28;19908;-72
2023/10/30 05:16:01;;;;;;;;;;;;;;;;;;5093597;28;19963;-72
2023/10/30 05:18:28;;;;;;;;;;;;;;;;;;5093850;28;19944;-73
2023/10/30 05:20:54;;;;;;;;;;;;;;;;;;5094059;28;19961;-73
2023/10/30 05:23:20;;;;;;;;;;;;;;;;;;5093082;28;19912;-73
2023/10/30 05:25:46;;;;;;;;;;;;;;;;;;5091534;28;19908;-73
2023/10/30 05:28:12;;;;;;;;;;;;;;;;;;5091985;28;20293;-73
2023/10/30 05:30:38;;;;;;;;;;;;;;;;;;5091427;28;20316;-73
2023/10/30 05:33:04;;;;;;;;;;;;;;;;;;5091897;28;19965;-73
2023/10/30 05:35:30;;;;;;;;;;;;;;;;;;5091802;28;19924;-73
2023/10/30 05:37:56;;;;;;;;;;;;;;;;;;5091959;28;19993;-73
2023/10/30 05:40:23;;;;;;;;;;;;;;;;;;5094775;28;20357;-73
2023/10/30 05:42:49;;;;;;;;;;;;;;;;;;5094177;28;20471;-73
2023/10/30 05:45:15;;;;;;;;;;;;;;;;;;5075368;28;19948;-73
2023/10/30 05:47:41;;;;;;;;;;;;;;;;;;5075919;28;19940;-73
2023/10/30 05:50:07;;;;;;;;;;;;;;;;;;5075796;28;19970;-73
2023/10/30 05:52:33;;;;;;;;;;;;;;;;;;5093352;28;19915;-73
2023/10/30 05:54:59;;;;;;;;;;;;;;;;;;5075655;28;19908;-73
2023/10/30 05:57:25;;;;;;;;;;;;;;;;;;5093772;28;19974;-73
2023/10/30 05:59:51;;;;;;;;;;;;;;;;;;5075225;28;19908;-73
2023/10/30 06:02:16;;;;;;;;;;;;;;;;;;5093717;28;19915;-73
2023/10/30 06:04:42;;;;;;;;;;;;;;;;;;5093652;28;19908;-73
2023/10/30 06:07:08;;;;;;;;;;;;;;;;;;5093403;28;19965;-73
2023/10/30 06:09:34;;;;;;;;;;;;;;;;;;5093531;28;19912;-73
2023/10/30 06:12:00;;;;;;;;;;;;;;;;;;5093535;28;19909;-73
2023/10/30 06:14:26;;;;;;;;;;;;;;;;;;5093172;28;19961;-73
2023/10/30 06:16:52;;;;;;;;;;;;;;;;;;5093681;28;19920;-73
2023/10/30 06:19:18;;;;;;;;;;;;;;;;;;5093363;28;20264;-73
2023/10/30 06:21:44;;;;;;;;;;;;;;;;;;5091680;28;19918;-68
2023/10/30 06:24:10;;;;;;;;;;;;;;;;;;5084824;28;20006;-69
2023/10/30 06:26:37;;;;;;;;;;;;;;;;;;5081039;28;19924;-69
2023/10/30 06:29:07;;;;;;;;;;;;;;;;;;5090079;28;19912;-69
2023/10/30 06:31:33;;;;;;;;;;;;;;;;;;5089266;28;19920;-71
2023/10/30 06:33:59;;;;;;;;;;;;;;;;;;5086666;28;19970;-70
2023/10/30 06:36:25;;;;;;;;;;;;;;;;;;5080096;28;19924;-71
2023/10/30 06:38:51;;;;;;;;;;;;;;;;;;5084202;28;19927;-69
2023/10/30 06:41:17;;;;;;;;;;;;;;;;;;5085239;28;19914;-69
2023/10/30 06:43:43;;;;;;;;;;;;;;;;;;5066659;28;19912;-68
2023/10/30 06:46:10;;;;;;;;;;;;;;;;;;5065855;28;19959;-68
2023/10/30 06:48:36;;;;;;;;;;;;;;;;;;5089663;28;20003;-67
2023/10/30 06:51:02;;;;;;;;;;;;;;;;;;5092516;28;19999;-69
2023/10/30 06:53:30;;;;;;;;;;;;;;;;;;5088262;28;19919;-69
2023/10/30 06:55:56;;;;;;;;;;;;;;;;;;5071551;28;20334;-68
2023/10/30 06:58:23;;;;;;;;;;;;;;;;;;5092105;28;19916;-67
2023/10/30 07:00:49;;;;;;;;;;;;;;;;;;5092481;28;19912;-67
2023/10/30 07:03:15;;;;;;;;;;;;;;;;;;5071788;28;19943;-69
2023/10/30 07:05:44;;;;;;;;;;;;;;;;;;5073447;28;19971;-68
2023/10/30 07:08:10;;;;;;;;;;;;;;;;;;5085788;28;19908;-69
2023/10/30 07:10:36;;;;;;;;;;;;;;;;;;5087476;28;19919;-68
2023/10/30 07:13:02;;;;;;;;;;;;;;;;;;5093286;28;19914;-68
2023/10/30 07:15:33;;;;;;;;;;;;;;;;;;5091951;28;19924;-68
2023/10/30 07:17:59;;;;;;;;;;;;;;;;;;5092272;28;19919;-69
2023/10/30 07:20:25;;;;;;;;;;;;;;;;;;5084362;28;20316;-69
2023/10/30 07:22:52;;;;;;;;;;;;;;;;;;5093094;28;20071;-69
2023/10/30 07:25:18;;;;;;;;;;;;;;;;;;5092295;28;19912;-68
2023/10/30 07:27:44;;;;;;;;;;;;;;;;;;5093330;28;19912;-69
2023/10/30 07:30:10;;;;;;;;;;;;;;;;;;5091346;28;20249;-69
2023/10/30 07:32:36;;;;;;;;;;;;;;;;;;5095244;28;19976;-69
2023/10/30 07:35:02;;;;;;;;;;;;;;;;;;5091236;28;20395;-69
2023/10/30 07:37:28;;;;;;;;;;;;;;;;;;5091634;28;19927;-68
2023/10/30 07:39:55;;;;;;;;;;;;;;;;;;5092132;28;19916;-69
2023/10/30 07:42:21;;;;;;;;;;;;;;;;;;5093888;28;20366;-69
2023/10/30 07:44:46;;;;;;;;;;;;;;;;;;5090412;28;20284;-69
2023/10/30 07:47:13;;;;;;;;;;;;;;;;;;5104306;28;20436;-69
2023/10/30 07:49:39;;;;;;;;;;;;;;;;;;5090641;28;19912;-69
2023/10/30 07:52:06;;;;;;;;;;;;;;;;;;5085263;28;19908;-70
2023/10/30 07:54:33;;;;;;;;;;;;;;;;;;5090122;28;19912;-67
2023/10/30 07:56:59;;;;;;;;;;;;;;;;;;5092079;28;19973;-68
2023/10/30 07:59:25;;;;;;;;;;;;;;;;;;5071011;28;19912;-69
2023/10/30 08:04:09;;;;;;;;;;;;;;;;;;5099580;27;19926;-69
2023/10/30 08:06:35;;;;;;;;;;;;;;;;;;5104871;28;19912;-70
2023/10/30 08:09:01;;;;;;;;;;;;;;;;;;5106314;28;19912;-71
2023/10/30 08:11:27;;;;;;;;;;;;;;;;;;5105506;28;19920;-71
2023/10/30 08:13:53;;;;;;;;;;;;;;;;;;5114993;28;19936;-71
2023/10/30 08:16:19;;;;;;;;;;;;;;;;;;5102266;28;20395;-71
2023/10/30 08:18:46;;;;;;;;;;;;;;;;;;5098478;28;19916;-72
2023/10/30 08:21:13;;;;;;;;;;;;;;;;;;5098601;28;19922;-71
2023/10/30 08:23:39;;;;;;;;;;;;;;;;;;5104916;28;20006;-70
2023/10/30 08:26:05;;;;;;;;;;;;;;;;;;5104765;28;19912;-67
2023/10/30 08:28:31;;;;;;;;;;;;;;;;;;5105675;28;19938;-70
2023/10/30 08:30:57;;;;;;;;;;;;;;;;;;5108229;28;20368;-69
2023/10/30 08:33:23;;;;;;;;;;;;;;;;;;5107102;28;19912;-69
2023/10/30 08:37:43;;;;;;;;;;;;;;;;;;5060765;27;19921;-68
2023/10/30 08:41:56;;;;;;;;;;;;;;;;;;5116377;27;19916;-68
2023/10/30 08:44:22;;;;;;;;;;;;;;;;;;5104455;28;19942;-69
2023/10/30 08:51:38;;;;;;;;;;;;;;;;;;5079577;27;19920;-68
2023/10/30 08:54:47;;;;;;;;;;;;;;;;;;5109766;27;19931;-67
2023/10/30 08:58:16;;;;;;;;;;;;;;;;;;5088642;27;19927;-69
2023/10/30 09:00:42;;;;;;;;;;;;;;;;;;5084138;28;19912;-70
2023/10/30 09:03:08;;;;;;;;;;;;;;;;;;5082371;28;19952;-71
2023/10/30 09:07:39;;;;;;;;;;;;;;;;;;5110031;27;20300;-71
2023/10/30 09:10:05;;;;;;;;;;;;;;;;;;5101157;28;19952;-72
2023/10/30 09:15:47;;;;;;;;;;;;;;;;;;5088886;27;19920;-71
2023/10/30 09:18:13;;;;;;;;;;;;;;;;;;5073960;28;19919;-70
2023/10/30 09:20:39;;;;;;;;;;;;;;;;;;5067026;28;19967;-70
2023/10/30 09:24:17;;;;;;;;;;;;;;;;;;4634671;27;13648842;-70
2023/10/30 09:29:13;;;;;;;;;;;;;;;;;;5095080;27;20288;-69
2023/10/30 09:35:49;;;;;;;;;;;;;;;;;;5068425;28;19917;-70
2023/10/30 09:38:15;;;;;;;;;;;;;;;;;;5068938;28;19923;-70
2023/10/30 09:41:59;;;;;;;;;;;;;;;;;;5068428;28;19931;-68
2023/10/30 09:44:25;;;;;;;;;;;;;;;;;;5067601;28;19923;-68
2023/10/30 09:47:27;;;;;;;;;;;;;;;;;;5060854;28;19923;-67
2023/10/30 09:51:17;;;;;;;;;;;;;;;;;;5154879;27;19938;-70
2023/10/30 09:53:43;;;;;;;;;;;;;;;;;;5135400;27;20348;-69
2023/10/30 09:56:09;;;;;;;;;;;;;;;;;;5133621;27;19981;-68
2023/10/30 09:58:37;;;;;;;;;;;;;;;;;;5116890;27;20412;-70
2023/10/30 10:03:27;;;;;;;;;;;;;;;;;;5108981;27;19926;-69
2023/10/30 10:10:30;;;;;;;;;;;;;;;;;;5086947;27;19942;-68
2023/10/30 10:12:57;;;;;;;;;;;;;;;;;;5071671;28;19912;-69
2023/10/30 10:17:56;;;;;;;;;;;;;;;;;;5084521;28;19927;-70
2023/10/30 10:20:23;;;;;;;;;;;;;;;;;;5068941;28;19917;-70
2023/10/30 10:22:49;;;;;;;;;;;;;;;;;;5081262;28;20547;-69
2023/10/30 10:25:18;;;;;;;;;;;;;;;;;;5099475;28;19920;-69
2023/10/30 10:27:44;;;;;;;;;;;;;;;;;;5066456;28;20354;-69
2023/10/30 10:30:10;;;;;;;;;;;;;;;;;;5067051;28;20003;-69
2023/10/30 10:32:37;;;;;;;;;;;;;;;;;;5102356;28;19909;-70
2023/10/30 10:35:05;;;;;;;;;;;;;;;;;;5100634;28;19913;-69
2023/10/30 10:39:00;;;;;;;;;;;;;;;;;;5108057;27;19930;-69
2023/10/30 10:41:26;;;;;;;;;;;;;;;;;;5108952;28;19995;-69
2023/10/30 10:45:43;;;;;;;;;;;;;;;;;;5165552;27;19921;-70
2023/10/30 10:48:09;;;;;;;;;;;;;;;;;;5172262;27;19919;-71
2023/10/30 10:50:35;;;;;;;;;;;;;;;;;;5170700;27;20433;-71
2023/10/30 10:53:01;;;;;;;;;;;;;;;;;;5171108;27;19943;-72
2023/10/30 10:55:27;;;;;;;;;;;;;;;;;;5169547;27;20418;-70
2023/10/30 10:57:54;;;;;;;;;;;;;;;;;;5169560;27;20009;-71
2023/10/30 11:00:20;;;;;;;;;;;;;;;;;;5166191;27;19918;-70
2023/10/30 11:02:46;;;;;;;;;;;;;;;;;;5151864;27;20518;-71
2023/10/30 11:05:12;;;;;;;;;;;;;;;;;;5170752;27;19930;-70
2023/10/30 11:07:38;;;;;;;;;;;;;;;;;;5152589;27;20342;-70
2023/10/30 11:10:04;;;;;;;;;;;;;;;;;;5169499;27;19911;-70
2023/10/30 11:12:30;;;;;;;;;;;;;;;;;;5171929;27;19959;-70
2023/10/30 11:14:56;;;;;;;;;;;;;;;;;;5169423;27;19911;-74
2023/10/30 11:17:22;;;;;;;;;;;;;;;;;;5149939;27;20386;-74
2023/10/30 11:19:48;;;;;;;;;;;;;;;;;;5168474;27;20294;-76
2023/10/30 11:22:15;;;;;;;;;;;;;;;;;;5169525;27;19907;-76
2023/10/30 11:24:41;;;;;;;;;;;;;;;;;;5169246;27;19965;-75
2023/10/30 11:27:07;;;;;;;;;;;;;;;;;;5137694;27;19915;-76
2023/10/30 11:29:33;;;;;;;;;;;;;;;;;;5170309;27;19911;-73
2023/10/30 11:32:00;;;;;;;;;;;;;;;;;;5152138;27;20366;-76
2023/10/30 11:34:26;;;;;;;;;;;;;;;;;;5168597;27;19911;-72
2023/10/30 11:36:52;;;;;;;;;;;;;;;;;;5165256;27;19926;-72
2023/10/30 11:39:19;;;;;;;;;;;;;;;;;;5169373;27;19907;-74
2023/10/30 11:41:49;;;;;;;;;;;;;;;;;;5172315;27;20282;-72
2023/10/30 11:44:15;;;;;;;;;;;;;;;;;;5178542;27;20006;-72
2023/10/30 11:46:41;;;;;;;;;;;;;;;;;;5167215;27;20079;-74
2023/10/30 11:49:08;;;;;;;;;;;;;;;;;;5150876;27;19911;-72
2023/10/30 11:51:34;;;;;;;;;;;;;;;;;;5148577;27;19911;-72
2023/10/30 11:54:03;;;;;;;;;;;;;;;;;;5141862;27;19914;-70
2023/10/30 11:56:32;;;;;;;;;;;;;;;;;;5147294;27;19919;-73
2023/10/30 11:59:01;;;;;;;;;;;;;;;;;;5156053;27;19951;-72
2023/10/30 12:01:27;;;;;;;;;;;;;;;;;;5136222;27;19907;-70
2023/10/30 12:03:53;;;;;;;;;;;;;;;;;;5134850;27;19922;-72
2023/10/30 12:06:19;;;;;;;;;;;;;;;;;;5155406;27;20009;-70
2023/10/30 12:08:45;;;;;;;;;;;;;;;;;;5131542;27;19986;-70
2023/10/30 12:11:11;;;;;;;;;;;;;;;;;;5136391;27;19911;-67
2023/10/30 12:13:37;;;;;;;;;;;;;;;;;;5156241;27;19918;-69
2023/10/30 12:16:03;;;;;;;;;;;;;;;;;;5152252;27;20013;-68
2023/10/30 12:18:29;;;;;;;;;;;;;;;;;;5152699;27;20002;-67
2023/10/30 12:20:57;;;;;;;;;;;;;;;;;;5155057;27;19911;-69
2023/10/30 12:23:23;;;;;;;;;;;;;;;;;;5135687;27;19923;-69
2023/10/30 12:25:51;;;;;;;;;;;;;;;;;;5154828;27;19978;-69
2023/10/30 12:28:16;;;;;;;;;;;;;;;;;;5155351;27;19915;-70
2023/10/30 12:30:43;;;;;;;;;;;;;;;;;;5138015;27;20278;-70
2023/10/30 12:33:13;;;;;;;;;;;;;;;;;;5137859;27;20290;-67
2023/10/30 12:35:40;;;;;;;;;;;;;;;;;;5152570;27;19918;-70
2023/10/30 12:38:06;;;;;;;;;;;;;;;;;;5156124;27;19911;-70
2023/10/30 12:40:32;;;;;;;;;;;;;;;;;;5136019;27;20401;-70
2023/10/30 12:42:58;;;;;;;;;;;;;;;;;;5155302;27;20312;-70
2023/10/30 12:45:24;;;;;;;;;;;;;;;;;;5155001;27;20390;-73
2023/10/30 12:47:50;;;;;;;;;;;;;;;;;;5135662;27;20338;-70
2023/10/30 12:50:16;;;;;;;;;;;;;;;;;;5135637;27;20319;-72
2023/10/30 12:52:42;;;;;;;;;;;;;;;;;;5151801;27;19922;-71
2023/10/30 12:55:08;;;;;;;;;;;;;;;;;;5135756;27;20383;-70
2023/10/30 12:57:36;;;;;;;;;;;;;;;;;;5154973;27;20044;-71
2023/10/30 13:00:03;;;;;;;;;;;;;;;;;;5154960;27;19940;-70
2023/10/30 13:02:29;;;;;;;;;;;;;;;;;;5142335;27;19935;-70
2023/10/30 13:04:55;;;;;;;;;;;;;;;;;;5150952;27;20276;-71
2023/10/30 13:07:21;;;;;;;;;;;;;;;;;;5153640;27;20395;-70
2023/10/30 13:09:47;;;;;;;;;;;;;;;;;;5135780;27;19907;-70
2023/10/30 13:12:13;;;;;;;;;;;;;;;;;;5154165;27;19994;-71
2023/10/30 13:14:39;;;;;;;;;;;;;;;;;;5135351;27;20013;-72
2023/10/30 13:17:05;;;;;;;;;;;;;;;;;;5135607;27;19930;-71
2023/10/30 13:19:31;;;;;;;;;;;;;;;;;;5135056;27;19954;-71
2023/10/30 13:21:59;;;;;;;;;;;;;;;;;;5153194;27;20006;-72
2023/10/30 13:24:25;;;;;;;;;;;;;;;;;;5145116;27;19922;-71
2023/10/30 13:26:51;;;;;;;;;;;;;;;;;;5115481;27;19908;-74
2023/10/30 13:29:17;;;;;;;;;;;;;;;;;;5141162;27;19917;-74
2023/10/30 13:31:43;;;;;;;;;;;;;;;;;;5154310;27;19920;-73
2023/10/30 13:34:08;;;;;;;;;;;;;;;;;;5154881;27;19911;-72
2023/10/30 13:36:34;;;;;;;;;;;;;;;;;;5136753;27;19914;-73
2023/10/30 13:39:00;;;;;;;;;;;;;;;;;;5155261;27;19911;-75
2023/10/30 13:41:26;;;;;;;;;;;;;;;;;;5137341;27;19911;-74
2023/10/30 13:43:52;;;;;;;;;;;;;;;;;;5133247;27;19927;-72
2023/10/30 13:46:18;;;;;;;;;;;;;;;;;;5134065;27;20432;-73
2023/10/30 13:48:45;;;;;;;;;;;;;;;;;;5134592;27;19911;-72
2023/10/30 13:51:10;;;;;;;;;;;;;;;;;;5134411;27;19915;-75
2023/10/30 13:53:36;;;;;;;;;;;;;;;;;;5134589;27;19911;-75
2023/10/30 13:56:03;;;;;;;;;;;;;;;;;;5134935;27;19945;-75
2023/10/30 13:58:29;;;;;;;;;;;;;;;;;;5132820;27;19957;-75
2023/10/30 14:00:55;;;;;;;;;;;;;;;;;;5132981;27;20315;-77
2023/10/30 14:03:21;;;;;;;;;;;;;;;;;;5131196;27;19918;-77
2023/10/30 14:05:47;;;;;;;;;;;;;;;;;;5132674;27;20337;-77
2023/10/30 14:08:13;;;;;;;;;;;;;;;;;;5132279;27;19911;-77
2023/10/30 14:10:39;;;;;;;;;;;;;;;;;;5132874;27;19907;-76
2023/10/30 14:13:05;;;;;;;;;;;;;;;;;;5132047;27;19915;-76
2023/10/30 14:15:31;;;;;;;;;;;;;;;;;;5134063;27;20002;-77
2023/10/30 14:17:57;;;;;;;;;;;;;;;;;;5133895;27;19908;-76
2023/10/30 14:20:23;;;;;;;;;;;;;;;;;;5134149;27;19911;-76
2023/10/30 14:22:49;;;;;;;;;;;;;;;;;;5132672;27;20378;-77
2023/10/30 14:25:14;;;;;;;;;;;;;;;;;;5132464;27;20275;-77
2023/10/30 14:27:40;;;;;;;;;;;;;;;;;;5131745;27;19914;-77
2023/10/30 14:30:06;;;;;;;;;;;;;;;;;;5132855;27;19907;-77
2023/10/30 14:32:32;;;;;;;;;;;;;;;;;;5132465;27;19911;-77
2023/10/30 14:34:58;;;;;;;;;;;;;;;;;;5132814;27;19914;-77
2023/10/30 14:37:24;;;;;;;;;;;;;;;;;;5134878;27;19943;-77
2023/10/30 14:39:50;;;;;;;;;;;;;;;;;;5134492;27;19996;-77
2023/10/30 14:42:16;;;;;;;;;;;;;;;;;;5134707;27;19911;-76
2023/10/30 14:44:42;;;;;;;;;;;;;;;;;;5146997;27;19923;-76
2023/10/30 14:47:08;;;;;;;;;;;;;;;;;;5136457;27;19907;-77
2023/10/30 14:49:34;;;;;;;;;;;;;;;;;;5155394;27;20392;-77
2023/10/30 14:52:02;;;;;;;;;;;;;;;;;;5155329;27;19907;-77
2023/10/30 14:54:28;;;;;;;;;;;;;;;;;;5154930;27;19943;-77
2023/10/30 14:56:54;;;;;;;;;;;;;;;;;;5155215;27;20328;-77
2023/10/30 14:59:20;;;;;;;;;;;;;;;;;;5155659;27;20378;-77
2023/10/30 15:01:46;;;;;;;;;;;;;;;;;;5154691;27;19907;-77
2023/10/30 15:04:12;;;;;;;;;;;;;;;;;;5154968;27;19934;-77
2023/10/30 15:06:38;;;;;;;;;;;;;;;;;;5155329;27;19913;-77
2023/10/30 15:09:05;;;;;;;;;;;;;;;;;;5154831;27;20029;-77
2023/10/30 15:11:31;;;;;;;;;;;;;;;;;;5155348;27;19954;-77
2023/10/30 15:13:57;;;;;;;;;;;;;;;;;;5155223;27;20443;-78
2023/10/30 15:16:23;;;;;;;;;;;;;;;;;;5154822;27;20001;-77
2023/10/30 15:18:48;;;;;;;;;;;;;;;;;;5155307;27;19914;-77
2023/10/30 15:21:14;;;;;;;;;;;;;;;;;;5155326;27;19907;-77
2023/10/30 15:23:40;;;;;;;;;;;;;;;;;;5155128;27;20017;-77
2023/10/30 15:26:07;;;;;;;;;;;;;;;;;;5155230;27;19911;-77
2023/10/30 15:28:32;;;;;;;;;;;;;;;;;;5154834;27;19956;-77
2023/10/30 15:30:58;;;;;;;;;;;;;;;;;;5156476;27;20319;-77
2023/10/30 15:33:30;;;;;;;26.13;14.23;;;;;;;;;;5157771;27;20436;-78
2023/10/30 15:35:56;;;;;;;26.13;11.20;;;;;;;;;;5158605;27;20027;-78
2023/10/30 15:40:33;;;;;;;16.52;7.80;;;;;;;;;;5091109;28;20375;-76
2023/10/30 15:45:04;;;;;;;19.08;9.52;;;;;;;;;;5071305;28;20469;-76
2023/10/30 15:51:31;;;;;;;58.33;34.17;;;;;;;;;;5110822;27;20873;-76
2023/10/30 15:53:57;;;;;;;40.80;27.02;;;;;;;;;;5111339;28;20055;-77
2023/10/30 15:59:18;;;;;;;27.15;16.80;;;;;;;;;;5071392;28;20391;-76
2023/10/30 16:01:44;;;;;;;32.40;22.58;;;;;;;;;;5070730;28;20025;-76
2023/10/30 16:04:10;;;;;;;32.65;22.90;;;;;;;;;;5070166;28;20449;-76
2023/10/30 16:06:37;;;;;;;23.20;15.43;;;;;;;;;;5070793;28;20025;-77
2023/10/30 16:09:21;;;;;;;21.38;12.30;;;;;;;;;;5111590;27;20113;-76
2023/10/30 16:12:32;;;;;;;21.98;12.82;;;;;;;;;;5131756;27;20384;-76
2023/10/30 16:14:59;;;;;;;19.13;10.90;;;;;;;;;;5132059;28;20023;-76
2023/10/30 16:17:26;;;;;;;21.17;13.15;;;;;;;;;;5131082;28;20018;-76
2023/10/30 16:27:07;;;;;;;15.38;9.48;;;;;;;;;;5071076;28;20432;-76
2023/10/30 16:29:33;;;;;;;16.38;7.88;;;;;;;;;;5070708;28;20029;-76
2023/10/30 16:31:59;;;;;;;13.73;7.10;;;;;;;;;;5070344;28;20205;-77
2023/10/30 16:34:26;;;;;;;12.68;5.90;;;;;;;;;;5069594;28;20392;-77
2023/10/30 16:36:52;;;;;;;10.73;5.55;;;;;;;;;;5070691;28;20035;-77
2023/10/30 16:40:08;;;;;;;8.98;4.47;;;;;;;;;;5111169;27;20389;-76
2023/10/30 16:42:34;;;;;;;14.50;4.60;;;;;;;;;;5111554;28;20024;-75
2023/10/30 16:45:01;;;;;;;17.88;8.20;;;;;;;;;;5111454;28;20099;-76
2023/10/30 16:48:45;;;;;;;22.80;10.50;;;;;;;;;;5071202;28;20372;-78
2023/10/30 16:51:34;;;;;;;19.90;9.82;;;;;;;;;;5111549;27;20389;-78
2023/10/30 16:57:37;;;;;;;14.38;6.72;;;;;;;;;;5111825;27;20388;-77
2023/10/30 17:00:04;;;;;;;18.08;9.88;;;;;;;;;;5111070;28;20020;-77
2023/10/30 17:03:26;;;;;;;17.92;10.18;;;;;;;;;;5111896;27;20574;-76
2023/10/30 17:06:37;;;;;;;16.70;9.70;;;;;;;;;;5090657;27;20750;-75
2023/10/30 17:11:13;;;;;;;19.48;9.45;;;;;;;;;;4917642;27;6013039;-74
2023/10/30 17:13:39;;;;;;;10.20;5.05;;;;;;;;;;5111166;28;20488;-76
2023/10/30 17:16:06;;;;;;;8.68;4.20;;;;;;;;;;5109794;28;20399;-76
2023/10/30 17:18:32;;;;;;;8.80;4.70;;;;;;;;;;5109143;28;20030;-77
2023/10/30 17:21:04;;;;;;;11.82;6.40;;;;;;;;;;5108343;28;20020;-77
2023/10/30 17:24:31;;;;;;;17.10;9.48;;;;;;;;;;5069147;28;20464;-77
2023/10/30 17:30:10;;;;;;;25.42;12.38;;;;;;;;;;5088660;27;20386;-77
2023/10/30 17:33:39;;;;;;;15.23;7.60;;;;;;;;;;5091491;27;20386;-76
2023/10/30 17:36:29;;;;;;;12.45;6.65;;;;;;;;;;5070631;28;20428;-76
2023/10/30 17:38:55;;;;;;;18.98;12.10;;;;;;;;;;5070752;28;20028;-77